sensor_id;sensor_type;location;lat;lon;timestamp;pressure;altitude;pressure_sealevel;temperature;humidity
64352;BME280;50680;52.626;-8.668;2022-11-20T21:17:06;100269.94;;;6.44;100.00
64352;BME280;50680;52.626;-8.668;2022-11-20T21:19:40;100275.69;;;6.50;100.00
64352;BME280;50680;52.626;-8.668;2022-11-20T21:22:07;100257.22;;;6.55;100.00
64352;BME280;50680;52.626;-8.668;2022-11-20T21:24:35;100259.53;;;6.61;100.00
64352;BME280;50680;52.626;-8.668;2022-11-20T21:27:04;100249.75;;;6.66;100.00
64352;BME280;50680;52.626;-8.668;2022-11-20T21:29:31;100250.34;;;6.71;100.00
64352;BME280;50680;52.626;-8.668;2022-11-20T21:31:58;100248.25;;;6.78;100.00
64352;BME280;50680;52.626;-8.668;2022-11-20T21:34:24;100238.50;;;6.82;100.00
64352;BME280;50680;52.626;-8.668;2022-11-20T21:36:52;100237.38;;;6.87;100.00
64352;BME280;50680;52.626;-8.668;2022-11-20T21:39:19;100233.75;;;6.90;100.00
64352;BME280;50680;52.626;-8.668;2022-11-20T21:41:47;100228.31;;;6.94;100.00
64352;BME280;50680;52.626;-8.668;2022-11-20T21:44:14;100213.44;;;6.96;100.00
64352;BME280;50680;52.626;-8.668;2022-11-20T21:46:56;100216.72;;;7.00;100.00
64352;BME280;50680;52.626;-8.668;2022-11-20T21:49:23;100215.88;;;7.00;100.00
64352;BME280;50680;52.626;-8.668;2022-11-20T21:51:50;100210.50;;;7.03;100.00
64352;BME280;50680;52.626;-8.668;2022-11-20T21:54:19;100195.63;;;7.05;100.00
64352;BME280;50680;52.626;-8.668;2022-11-20T21:56:46;100195.38;;;7.09;100.00
64352;BME280;50680;52.626;-8.668;2022-11-20T21:59:12;100198.75;;;7.11;100.00
64352;BME280;50680;52.626;-8.668;2022-11-20T22:01:39;100180.31;;;7.14;100.00
64352;BME280;50680;52.626;-8.668;2022-11-20T22:04:12;100187.16;;;7.17;100.00
64352;BME280;50680;52.626;-8.668;2022-11-20T22:06:39;100173.22;;;7.18;100.00
64352;BME280;50680;52.626;-8.668;2022-11-20T22:09:06;100163.44;;;7.22;100.00
64352;BME280;50680;52.626;-8.668;2022-11-20T22:11:32;100158.81;;;7.27;100.00
64352;BME280;50680;52.626;-8.668;2022-11-20T22:13:59;100141.31;;;7.29;100.00
64352;BME280;50680;52.626;-8.668;2022-11-20T22:16:45;100135.84;;;7.33;100.00
64352;BME280;50680;52.626;-8.668;2022-11-20T22:19:16;100132.25;;;7.36;100.00
64352;BME280;50680;52.626;-8.668;2022-11-20T22:21:44;100133.66;;;7.42;100.00
64352;BME280;50680;52.626;-8.668;2022-11-20T22:24:12;100142.22;;;7.44;100.00
64352;BME280;50680;52.626;-8.668;2022-11-20T22:26:40;100138.38;;;7.51;100.00
64352;BME280;50680;52.626;-8.668;2022-11-20T22:29:12;100138.19;;;7.54;100.00
64352;BME280;50680;52.626;-8.668;2022-11-20T22:31:39;100123.41;;;7.55;100.00
64352;BME280;50680;52.626;-8.668;2022-11-20T22:34:09;100113.72;;;7.57;100.00
64352;BME280;50680;52.626;-8.668;2022-11-20T22:36:37;100106.72;;;7.57;100.00
64352;BME280;50680;52.626;-8.668;2022-11-20T22:39:04;100088.47;;;7.57;100.00
64352;BME280;50680;52.626;-8.668;2022-11-20T22:41:32;100069.19;;;7.60;100.00
64352;BME280;50680;52.626;-8.668;2022-11-20T22:44:01;100067.34;;;7.62;100.00
64352;BME280;50680;52.626;-8.668;2022-11-20T22:46:30;100075.91;;;7.64;100.00
64352;BME280;50680;52.626;-8.668;2022-11-20T22:49:00;100058.38;;;7.66;100.00
64352;BME280;50680;52.626;-8.668;2022-11-20T22:51:29;100056.34;;;7.71;100.00
64352;BME280;50680;52.626;-8.668;2022-11-20T22:53:57;100037.19;;;7.72;100.00
64352;BME280;50680;52.626;-8.668;2022-11-20T22:56:24;100026.53;;;7.75;100.00
64352;BME280;50680;52.626;-8.668;2022-11-20T22:58:52;100016.09;;;7.75;100.00
64352;BME280;50680;52.626;-8.668;2022-11-20T23:01:22;100007.53;;;7.73;100.00
64352;BME280;50680;52.626;-8.668;2022-11-20T23:03:51;100001.38;;;7.74;100.00
64352;BME280;50680;52.626;-8.668;2022-11-20T23:06:19;100004.00;;;7.74;100.00
64352;BME280;50680;52.626;-8.668;2022-11-20T23:08:47;100005.78;;;7.74;100.00
64352;BME280;50680;52.626;-8.668;2022-11-20T23:11:19;99998.94;;;7.71;100.00
64352;BME280;50680;52.626;-8.668;2022-11-20T23:13:50;99989.34;;;7.71;100.00
64352;BME280;50680;52.626;-8.668;2022-11-20T23:16:18;99980.59;;;7.72;100.00
64352;BME280;50680;52.626;-8.668;2022-11-20T23:19:12;99950.78;;;7.77;100.00
64352;BME280;50680;52.626;-8.668;2022-11-20T23:21:40;99946.97;;;7.82;100.00
64352;BME280;50680;52.626;-8.668;2022-11-20T23:24:08;99931.13;;;7.85;100.00
64352;BME280;50680;52.626;-8.668;2022-11-20T23:26:37;99927.41;;;7.89;100.00
64352;BME280;50680;52.626;-8.668;2022-11-20T23:29:04;99921.63;;;7.99;100.00
64352;BME280;50680;52.626;-8.668;2022-11-20T23:31:33;99923.75;;;8.06;100.00
64352;BME280;50680;52.626;-8.668;2022-11-20T23:34:01;99923.28;;;8.14;100.00
64352;BME280;50680;52.626;-8.668;2022-11-20T23:36:28;99906.38;;;8.20;100.00
64352;BME280;50680;52.626;-8.668;2022-11-20T23:38:55;99895.56;;;8.26;100.00
64352;BME280;50680;52.626;-8.668;2022-11-20T23:41:22;99889.22;;;8.30;100.00
64352;BME280;50680;52.626;-8.668;2022-11-20T23:43:48;99895.06;;;8.34;100.00
64352;BME280;50680;52.626;-8.668;2022-11-20T23:46:15;99877.34;;;8.39;100.00
64352;BME280;50680;52.626;-8.668;2022-11-20T23:48:43;99878.78;;;8.44;100.00
64352;BME280;50680;52.626;-8.668;2022-11-20T23:51:11;99853.38;;;8.46;100.00
64352;BME280;50680;52.626;-8.668;2022-11-20T23:53:39;99853.94;;;8.52;100.00
64352;BME280;50680;52.626;-8.668;2022-11-20T23:56:05;99835.66;;;8.52;100.00
64352;BME280;50680;52.626;-8.668;2022-11-20T23:58:35;99823.13;;;8.57;100.00
